Time;durP1;ratioP1;P1;durP2;ratioP2;P2;SDS_P1;SDS_P2;PMS_P1;PMS_P2;Temp;Humidity;BMP_temperature;BMP_pressure;BME280_temperature;BME280_humidity;BME280_pressure;Samples;Min_cycle;Max_cycle;Signal;HPM_P1;HPM_P2
2023/03/21 00:00:48;;;;;;;5.13;2.50;;;14.80;52.60;;;;;;5085635;27;45389;-67
2023/03/21 00:03:16;;;;;;;2.70;2.45;;;14.80;52.70;;;;;;5085948;27;45242;-67
2023/03/21 00:05:44;;;;;;;3.80;2.67;;;14.70;52.60;;;;;;5086371;27;45272;-67
2023/03/21 00:08:11;;;;;;;3.38;2.40;;;14.70;52.70;;;;;;5088969;27;45308;-67
2023/03/21 00:10:38;;;;;;;6.05;2.47;;;14.70;52.70;;;;;;5089173;27;45353;-67
2023/03/21 00:13:05;;;;;;;2.33;1.98;;;14.70;52.50;;;;;;5089215;27;45257;-67
2023/03/21 00:15:32;;;;;;;4.90;2.17;;;14.70;52.50;;;;;;5088821;27;46421;-67
2023/03/21 00:18:02;;;;;;;5.10;2.15;;;14.70;52.60;;;;;;5089115;27;45373;-67
2023/03/21 00:20:33;;;;;;;2.60;1.88;;;14.70;52.60;;;;;;5089211;27;45307;-67
2023/03/21 00:23:00;;;;;;;3.28;2.20;;;14.70;52.60;;;;;;5089090;27;45456;-67
2023/03/21 00:25:27;;;;;;;3.58;2.20;;;14.70;52.60;;;;;;5088729;27;46603;-67
2023/03/21 00:27:53;;;;;;;5.25;2.55;;;14.70;52.60;;;;;;5088868;27;45400;-67
2023/03/21 00:30:20;;;;;;;3.55;2.45;;;14.70;52.50;;;;;;5088898;27;45319;-67
2023/03/21 00:32:47;;;;;;;2.63;2.38;;;14.60;52.50;;;;;;5088997;27;45261;-66
2023/03/21 00:35:14;;;;;;;3.05;2.20;;;14.60;52.50;;;;;;5088598;27;46344;-67
2023/03/21 00:37:43;;;;;;;3.47;2.00;;;14.60;52.50;;;;;;5088557;27;45366;-67
2023/03/21 00:40:11;;;;;;;3.40;2.28;;;14.60;52.50;;;;;;5088804;27;45323;-67
2023/03/21 00:42:38;;;;;;;2.28;1.85;;;14.60;52.50;;;;;;5089040;27;45587;-67
2023/03/21 00:45:09;;;;;;;3.05;2.30;;;14.60;52.50;;;;;;5088446;27;46405;-67
2023/03/21 00:47:36;;;;;;;3.05;2.10;;;14.50;52.40;;;;;;5088434;27;45228;-67
2023/03/21 00:50:03;;;;;;;4.43;2.28;;;14.50;53.00;;;;;;5088556;27;45196;-67
2023/03/21 00:52:30;;;;;;;3.40;2.42;;;14.50;52.50;;;;;;5088640;27;45351;-68
2023/03/21 00:54:58;;;;;;;3.53;2.13;;;14.50;52.50;;;;;;5088235;27;47011;-67
2023/03/21 00:57:25;;;;;;;2.17;1.92;;;14.50;52.50;;;;;;5088274;27;45375;-67
2023/03/21 00:59:52;;;;;;;4.65;2.25;;;14.50;52.50;;;;;;5088339;27;45224;-67
2023/03/21 01:02:21;;;;;;;3.22;1.98;;;14.50;52.50;;;;;;5088413;27;45261;-67
2023/03/21 01:04:48;;;;;;;2.90;1.90;;;14.50;52.60;;;;;;5088157;27;45363;-67
2023/03/21 01:07:15;;;;;;;2.90;1.88;;;14.40;52.50;;;;;;5088219;27;45260;-67
2023/03/21 01:09:42;;;;;;;2.40;1.73;;;14.40;52.50;;;;;;5088191;27;45253;-67
2023/03/21 01:12:10;;;;;;;2.47;1.92;;;14.40;52.50;;;;;;5088306;27;45390;-67
2023/03/21 01:14:37;;;;;;;2.63;1.75;;;14.40;52.50;;;;;;5087966;27;46393;-67
2023/03/21 01:17:04;;;;;;;2.30;1.92;;;14.40;52.50;;;;;;5087012;27;45459;-67
2023/03/21 01:19:31;;;;;;;4.43;1.88;;;14.40;52.40;;;;;;5088103;27;45242;-66
2023/03/21 01:21:58;;;;;;;2.35;2.10;;;14.40;52.50;;;;;;5088162;27;45530;-67
2023/03/21 01:24:25;;;;;;;3.90;2.22;;;14.40;52.50;;;;;;5087710;27;46180;-67
2023/03/21 01:26:52;;;;;;;2.33;1.60;;;14.40;52.40;;;;;;5087926;27;45352;-66
2023/03/21 01:29:20;;;;;;;3.13;1.90;;;14.40;52.50;;;;;;5087938;27;45327;-67
2023/03/21 01:31:47;;;;;;;1.95;1.63;;;14.40;52.50;;;;;;5087992;27;45384;-67
2023/03/21 01:34:14;;;;;;;2.60;1.60;;;14.40;52.50;;;;;;5087596;27;45256;-67
2023/03/21 01:36:41;;;;;;;2.47;1.60;;;14.30;52.40;;;;;;5087688;27;45394;-67
2023/03/21 01:39:08;;;;;;;2.20;1.67;;;14.30;52.40;;;;;;5087818;27;45304;-67
2023/03/21 01:41:35;;;;;;;1.92;1.67;;;14.30;52.40;;;;;;5087894;27;45410;-67
2023/03/21 01:44:03;;;;;;;2.63;1.80;;;14.30;52.40;;;;;;5087535;27;46632;-67
2023/03/21 01:46:38;;;;;;;1.88;1.73;;;14.30;52.40;;;;;;5087530;27;45253;-67
2023/03/21 01:49:07;;;;;;;3.03;1.65;;;14.30;52.50;;;;;;5087642;27;45244;-67
2023/03/21 01:51:37;;;;;;;3.00;1.77;;;14.30;52.50;;;;;;5087705;27;45450;-67
2023/03/21 01:54:05;;;;;;;2.50;1.70;;;14.30;52.50;;;;;;5087612;27;45241;-67
2023/03/21 01:56:34;;;;;;;1.73;1.50;;;14.30;52.50;;;;;;5087596;27;45374;-67
2023/03/21 01:59:04;;;;;;;1.92;1.73;;;14.20;52.50;;;;;;5087451;27;45275;-67
2023/03/21 02:01:33;;;;;;;1.73;1.30;;;14.20;52.50;;;;;;5087427;27;45406;-67
2023/03/21 02:04:02;;;;;;;2.47;1.88;;;14.20;52.50;;;;;;5087434;27;46390;-67
2023/03/21 02:06:35;;;;;;;2.10;1.50;;;14.20;52.50;;;;;;5087210;27;45325;-67
2023/03/21 02:09:03;;;;;;;1.65;1.55;;;14.20;52.50;;;;;;5087239;27;45288;-67
2023/03/21 02:11:31;;;;;;;2.35;1.63;;;14.20;52.50;;;;;;5087340;27;45335;-66
2023/03/21 02:13:57;;;;;;;2.33;1.50;;;14.20;52.50;;;;;;5087082;27;45603;-67
2023/03/21 02:16:33;;;;;;;2.17;1.55;;;14.10;52.40;;;;;;5087061;27;45293;-67
2023/03/21 02:19:07;;;;;;;1.63;1.35;;;14.10;52.50;;;;;;5087382;27;45429;-67
2023/03/21 02:22:14;;;;;;;1.50;1.20;;;14.10;52.50;;;;;;5087388;27;45425;-67
2023/03/21 02:24:58;;;;;;;2.03;1.45;;;14.10;52.50;;;;;;5086585;27;45377;-67
2023/03/21 02:27:25;;;;;;;2.50;1.67;;;14.10;52.50;;;;;;5086890;27;45406;-67
2023/03/21 02:30:16;;;;;;;2.78;1.67;;;14.10;52.50;;;;;;5086661;27;45208;-67
2023/03/21 02:32:55;;;;;;;3.45;1.33;;;14.10;52.50;;;;;;5087035;27;45424;-67
2023/03/21 02:35:35;;;;;;;1.75;1.45;;;14.10;52.50;;;;;;5086645;27;47333;-67
2023/03/21 02:38:05;;;;;;;1.80;1.40;;;14.10;52.50;;;;;;5086689;27;45276;-67
2023/03/21 02:40:33;;;;;;;1.23;1.13;;;14.00;52.50;;;;;;5087109;27;45415;-67
2023/03/21 02:43:02;;;;;;;1.48;1.30;;;14.00;52.50;;;;;;5086944;27;45252;-67
2023/03/21 02:45:32;;;;;;;1.55;1.45;;;14.00;52.50;;;;;;5086532;27;46390;-67
2023/03/21 02:48:03;;;;;;;2.80;1.40;;;14.00;52.60;;;;;;5086715;27;45201;-67
2023/03/21 02:50:32;;;;;;;2.08;1.27;;;14.00;52.60;;;;;;5086687;27;45303;-66
2023/03/21 02:52:59;;;;;;;1.33;1.23;;;14.00;52.60;;;;;;5086716;27;45412;-67
2023/03/21 02:55:28;;;;;;;1.42;1.30;;;14.00;52.60;;;;;;5086461;27;47314;-66
2023/03/21 02:57:55;;;;;;;1.63;1.33;;;14.00;52.60;;;;;;5086747;27;45442;-66
2023/03/21 03:00:23;;;;;;;1.60;1.25;;;13.90;52.60;;;;;;5086457;27;45211;-67
2023/03/21 03:02:50;;;;;;;1.38;1.27;;;13.90;52.60;;;;;;5086640;27;45323;-67
2023/03/21 03:05:18;;;;;;;1.98;1.40;;;13.90;52.60;;;;;;5086369;27;46481;-67
2023/03/21 03:07:52;;;;;;;2.20;1.40;;;13.90;52.60;;;;;;5086205;27;45307;-67
2023/03/21 03:10:30;;;;;;;1.52;1.38;;;13.90;52.60;;;;;;5086292;27;45304;-67
2023/03/21 03:13:00;;;;;;;2.13;1.20;;;13.90;53.10;;;;;;5086535;27;45446;-67
2023/03/21 03:15:33;;;;;;;1.30;1.20;;;13.90;52.60;;;;;;5086116;27;45482;-67
2023/03/21 03:18:01;;;;;;;1.02;1.00;;;13.90;52.60;;;;;;5086362;27;45278;-67
2023/03/21 03:20:32;;;;;;;1.38;1.27;;;13.90;52.60;;;;;;5086286;27;45359;-67
2023/03/21 03:23:09;;;;;;;1.08;1.05;;;13.90;52.60;;;;;;5086283;27;45249;-67
2023/03/21 03:25:40;;;;;;;1.52;1.40;;;13.80;52.60;;;;;;5085564;27;46381;-67
2023/03/21 03:28:07;;;;;;;1.70;1.20;;;13.80;52.50;;;;;;5086069;28;45325;-67
2023/03/21 03:30:35;;;;;;;0.90;0.90;;;13.80;52.60;;;;;;5085886;27;45151;-67
2023/03/21 03:33:02;;;;;;;1.38;1.10;;;13.80;52.60;;;;;;5086153;27;45419;-67
2023/03/21 03:35:29;;;;;;;2.42;1.10;;;13.80;52.50;;;;;;5085769;27;46307;-67
2023/03/21 03:37:57;;;;;;;1.48;1.17;;;13.80;52.60;;;;;;5085842;27;45257;-67
2023/03/21 03:40:25;;;;;;;1.15;1.05;;;13.80;52.60;;;;;;5085218;27;45289;-67
2023/03/21 03:42:54;;;;;;;1.33;1.15;;;13.70;52.60;;;;;;5086125;27;45350;-67
2023/03/21 03:45:23;;;;;;;1.35;1.00;;;13.70;52.60;;;;;;5085613;27;45590;-66
2023/03/21 03:47:52;;;;;;;1.23;1.13;;;13.70;52.70;;;;;;5085809;27;45130;-67
2023/03/21 03:50:21;;;;;;;1.05;1.00;;;13.70;52.60;;;;;;5085871;27;45462;-67
2023/03/21 03:52:50;;;;;;;1.23;1.00;;;13.70;52.60;;;;;;5085896;27;45258;-67
2023/03/21 03:55:17;;;;;;;1.10;1.00;;;13.70;52.60;;;;;;5085568;27;46513;-67
2023/03/21 03:57:44;;;;;;;1.17;1.13;;;13.70;52.60;;;;;;5085614;27;45483;-67
2023/03/21 04:00:14;;;;;;;1.30;1.20;;;13.70;52.70;;;;;;5085761;27;45235;-67
2023/03/21 04:02:41;;;;;;;1.30;1.20;;;13.70;52.60;;;;;;5085826;27;45476;-67
2023/03/21 04:05:08;;;;;;;1.40;1.08;;;13.70;52.70;;;;;;5085471;27;46363;-67
2023/03/21 04:07:35;;;;;;;1.15;1.00;;;13.70;52.70;;;;;;5085547;27;45395;-67
2023/03/21 04:10:02;;;;;;;1.40;1.30;;;13.70;52.70;;;;;;5085607;27;45313;-67
2023/03/21 04:12:29;;;;;;;1.20;1.10;;;13.70;53.20;;;;;;5085695;27;45290;-67
2023/03/21 04:14:55;;;;;;;1.10;1.00;;;13.70;52.60;;;;;;5085267;27;48403;-67
2023/03/21 04:17:24;;;;;;;1.00;1.00;;;13.60;52.60;;;;;;5085552;27;45398;-67
2023/03/21 04:19:51;;;;;;;0.98;0.98;;;13.60;52.60;;;;;;5085657;27;45381;-67
2023/03/21 04:22:18;;;;;;;1.05;0.98;;;13.60;52.60;;;;;;5085490;27;45545;-67
2023/03/21 04:24:45;;;;;;;1.85;0.80;;;13.60;52.70;;;;;;5084827;27;45566;-66
2023/03/21 04:27:12;;;;;;;1.27;0.98;;;13.60;52.60;;;;;;5085347;27;45331;-67
2023/03/21 04:29:39;;;;;;;2.08;1.23;;;13.60;52.60;;;;;;5085340;27;45403;-67
2023/03/21 04:32:14;;;;;;;0.80;0.80;;;13.60;52.60;;;;;;5085294;27;45389;-66
2023/03/21 04:34:48;;;;;;;1.00;0.95;;;13.60;52.60;;;;;;5085100;27;45464;-67
2023/03/21 04:37:15;;;;;;;0.82;0.82;;;13.50;52.60;;;;;;5085054;27;45355;-67
2023/03/21 04:39:42;;;;;;;1.13;1.00;;;13.50;52.70;;;;;;5085100;27;45367;-67
2023/03/21 04:42:09;;;;;;;1.23;1.02;;;13.50;52.60;;;;;;5085147;27;45249;-66
2023/03/21 04:44:36;;;;;;;0.82;0.82;;;13.50;52.70;;;;;;5085149;27;45189;-67
2023/03/21 04:47:03;;;;;;;1.13;1.02;;;13.50;52.70;;;;;;5085041;27;45315;-67
2023/03/21 04:49:30;;;;;;;1.13;1.00;;;13.50;52.70;;;;;;5084950;27;45376;-67
2023/03/21 04:51:58;;;;;;;1.25;1.13;;;13.50;52.70;;;;;;5086370;27;45347;-67
2023/03/21 04:54:25;;;;;;;0.82;0.82;;;13.50;52.70;;;;;;5088281;27;46407;-67
2023/03/21 04:56:52;;;;;;;1.23;1.10;;;13.50;52.60;;;;;;5088455;27;45319;-66
2023/03/21 04:59:20;;;;;;;0.90;0.90;;;13.50;53.20;;;;;;5088479;27;45444;-67
2023/03/21 05:01:48;;;;;;;1.00;1.00;;;13.50;52.60;;;;;;5088501;27;45400;-67
2023/03/21 05:04:15;;;;;;;0.98;0.98;;;13.50;52.60;;;;;;5088074;27;46658;-67
2023/03/21 05:06:42;;;;;;;1.23;0.90;;;13.50;52.50;;;;;;5088269;27;45335;-67
2023/03/21 05:09:11;;;;;;;0.80;0.80;;;13.40;52.50;;;;;;5088290;27;45342;-67
2023/03/21 05:11:39;;;;;;;1.23;0.85;;;13.40;52.50;;;;;;5088310;27;45400;-67
2023/03/21 05:14:05;;;;;;;1.02;0.77;;;13.40;52.50;;;;;;5087993;27;45543;-67
2023/03/21 05:16:33;;;;;;;1.13;1.02;;;13.40;52.60;;;;;;5087963;27;45295;-67
2023/03/21 05:19:02;;;;;;;1.02;0.80;;;13.40;52.50;;;;;;5088262;27;45374;-67
2023/03/21 05:21:32;;;;;;;0.90;0.90;;;13.40;52.50;;;;;;5088193;27;45380;-67
2023/03/21 05:24:02;;;;;;;0.77;0.75;;;13.40;52.50;;;;;;5087491;27;45800;-66
2023/03/21 05:26:30;;;;;;;0.93;0.75;;;13.40;52.50;;;;;;5087902;27;45134;-66
2023/03/21 05:28:57;;;;;;;1.15;0.95;;;13.40;53.10;;;;;;5087854;27;45249;-67
2023/03/21 05:31:24;;;;;;;1.13;1.02;;;13.30;52.50;;;;;;5088194;27;45372;-66
2023/03/21 05:33:51;;;;;;;0.73;0.73;;;13.30;52.50;;;;;;5087675;27;46646;-67
2023/03/21 05:36:18;;;;;;;1.23;0.98;;;13.30;52.50;;;;;;5087918;27;45545;-66
2023/03/21 05:38:45;;;;;;;1.15;1.05;;;13.30;52.50;;;;;;5087792;27;45202;-66
2023/03/21 05:41:12;;;;;;;1.20;1.10;;;13.30;52.50;;;;;;5087875;27;45328;-66
2023/03/21 05:43:40;;;;;;;1.20;1.10;;;13.30;52.50;;;;;;5087626;27;47562;-66
2023/03/21 05:46:07;;;;;;;0.90;0.90;;;13.30;52.50;;;;;;5087515;27;45469;-66
2023/03/21 05:48:34;;;;;;;1.10;1.00;;;13.30;52.50;;;;;;5087698;27;45337;-66
2023/03/21 05:51:01;;;;;;;0.98;0.90;;;13.30;52.50;;;;;;5087762;27;45269;-66
2023/03/21 05:53:28;;;;;;;1.05;1.00;;;13.20;52.50;;;;;;5087316;27;46728;-66
2023/03/21 05:55:55;;;;;;;0.90;0.90;;;13.20;52.50;;;;;;5087629;27;45389;-66
2023/03/21 05:58:21;;;;;;;1.00;0.90;;;13.20;52.50;;;;;;5087600;27;45472;-66
2023/03/21 06:00:50;;;;;;;0.85;0.85;;;13.20;52.60;;;;;;5087460;27;45427;-66
2023/03/21 06:03:16;;;;;;;0.80;0.80;;;13.20;52.50;;;;;;5086610;27;46685;-66
2023/03/21 06:05:43;;;;;;;1.00;0.95;;;13.20;52.50;;;;;;5087216;27;45299;-66
2023/03/21 06:08:10;;;;;;;0.93;0.90;;;13.20;52.50;;;;;;5087471;28;45407;-66
2023/03/21 06:10:37;;;;;;;1.30;0.90;;;13.20;52.40;;;;;;5087159;27;45255;-66
2023/03/21 06:13:04;;;;;;;1.58;1.00;;;13.20;52.40;;;;;;5087035;27;45433;-66
2023/03/21 06:15:31;;;;;;;0.93;0.90;;;13.20;52.40;;;;;;5087227;27;45232;-66
2023/03/21 06:17:59;;;;;;;1.67;1.10;;;13.20;52.40;;;;;;5087381;27;45236;-66
2023/03/21 06:20:26;;;;;;;1.17;0.93;;;13.20;53.00;;;;;;5087397;27;45342;-67
2023/03/21 06:22:53;;;;;;;1.58;0.88;;;13.20;52.40;;;;;;5086973;27;46308;-66
2023/03/21 06:25:20;;;;;;;1.67;1.20;;;13.20;52.40;;;;;;5086844;27;45248;-66
2023/03/21 06:27:47;;;;;;;3.10;1.10;;;13.20;52.40;;;;;;5087230;27;45399;-66
2023/03/21 06:30:15;;;;;;;0.90;0.80;;;13.20;52.30;;;;;;5087297;27;45472;-66
2023/03/21 06:32:41;;;;;;;1.58;0.80;;;13.20;52.30;;;;;;5086722;27;45399;-66
2023/03/21 06:35:10;;;;;;;0.85;0.85;;;13.20;52.30;;;;;;5086769;27;45320;-66
2023/03/21 06:37:37;;;;;;;1.30;1.20;;;13.20;52.30;;;;;;5087185;27;45327;-66
2023/03/21 06:40:07;;;;;;;1.13;1.05;;;13.20;52.30;;;;;;5086995;27;45354;-66
2023/03/21 06:42:34;;;;;;;1.10;1.00;;;13.20;52.20;;;;;;5086515;27;46848;-66
2023/03/21 06:45:01;;;;;;;0.80;0.80;;;13.20;52.20;;;;;;5086698;27;45276;-66
2023/03/21 06:47:28;;;;;;;1.00;0.68;;;13.20;52.20;;;;;;5086590;27;45317;-66
2023/03/21 06:49:55;;;;;;;1.00;1.00;;;13.20;52.20;;;;;;5086797;27;45423;-66
2023/03/21 06:52:23;;;;;;;1.33;1.13;;;13.20;52.20;;;;;;5086323;27;46451;-66
2023/03/21 06:54:50;;;;;;;2.28;0.73;;;13.20;52.20;;;;;;5086591;27;45352;-66
2023/03/21 06:57:19;;;;;;;0.70;0.68;;;13.20;52.20;;;;;;5086472;27;45261;-66
2023/03/21 06:59:46;;;;;;;0.70;0.70;;;13.20;52.20;;;;;;5086652;27;45276;-66
2023/03/21 07:02:13;;;;;;;1.10;1.00;;;13.20;52.10;;;;;;5086040;27;45332;-66
2023/03/21 07:04:40;;;;;;;1.23;1.00;;;13.20;52.20;;;;;;5086190;27;45334;-66
2023/03/21 07:07:06;;;;;;;0.90;0.90;;;13.20;52.10;;;;;;5086476;27;45195;-67
2023/03/21 07:09:35;;;;;;;1.35;1.10;;;13.30;52.20;;;;;;5086284;27;45582;-66
2023/03/21 07:12:02;;;;;;;0.80;0.80;;;13.30;52.10;;;;;;5085981;27;46238;-66
2023/03/21 07:14:30;;;;;;;1.02;0.93;;;13.30;52.10;;;;;;5086070;27;46594;-66
2023/03/21 07:16:57;;;;;;;0.73;0.60;;;13.30;52.10;;;;;;5085630;27;45270;-66
2023/03/21 07:19:25;;;;;;;1.05;0.95;;;13.30;52.10;;;;;;5086282;27;45306;-67
2023/03/21 07:21:51;;;;;;;0.80;0.80;;;13.30;52.10;;;;;;5085871;27;45802;-67
2023/03/21 07:24:18;;;;;;;0.90;0.90;;;13.30;52.10;;;;;;5085499;27;45395;-66
2023/03/21 07:26:46;;;;;;;1.60;0.90;;;13.30;52.10;;;;;;5086185;27;45314;-67
2023/03/21 07:29:14;;;;;;;0.88;0.73;;;13.30;52.10;;;;;;5086217;27;45432;-66
2023/03/21 07:31:41;;;;;;;1.10;0.80;;;13.30;52.10;;;;;;5085526;27;46392;-67
2023/03/21 07:34:07;;;;;;;0.93;0.85;;;13.30;52.10;;;;;;5085716;27;45228;-67
2023/03/21 07:36:35;;;;;;;1.27;1.05;;;13.30;52.00;;;;;;5085705;27;45348;-66
2023/03/21 07:39:03;;;;;;;1.15;0.90;;;13.40;52.10;;;;;;5085898;27;45319;-67
2023/03/21 07:41:30;;;;;;;0.90;0.90;;;13.40;52.00;;;;;;5085424;27;45669;-67
2023/03/21 07:43:58;;;;;;;0.80;0.80;;;13.40;52.00;;;;;;5085708;27;45387;-66
2023/03/21 07:46:25;;;;;;;1.00;0.90;;;13.40;52.00;;;;;;5085915;27;45260;-67
2023/03/21 07:48:51;;;;;;;1.35;1.00;;;13.40;51.90;;;;;;5085944;27;45134;-67
2023/03/21 07:51:18;;;;;;;1.08;0.90;;;13.40;51.90;;;;;;5085215;27;46819;-66
2023/03/21 07:53:47;;;;;;;1.30;0.95;;;13.40;51.90;;;;;;5085546;27;45458;-67
2023/03/21 07:56:14;;;;;;;0.85;0.77;;;13.50;51.90;;;;;;5085750;27;45365;-66
2023/03/21 07:58:41;;;;;;;0.80;0.80;;;13.50;51.90;;;;;;5085653;27;45124;-67
2023/03/21 08:01:09;;;;;;;1.17;1.08;;;13.50;51.90;;;;;;5085211;27;46413;-66
2023/03/21 08:03:36;;;;;;;1.08;0.90;;;13.50;52.00;;;;;;5085321;27;45323;-66
2023/03/21 08:06:03;;;;;;;0.80;0.80;;;13.50;52.50;;;;;;5085529;27;45357;-66
2023/03/21 08:08:30;;;;;;;2.30;0.90;;;13.50;51.80;;;;;;5085762;27;45295;-66
2023/03/21 08:10:57;;;;;;;0.77;0.77;;;13.50;51.80;;;;;;5084996;27;46722;-67
2023/03/21 08:13:24;;;;;;;1.17;0.98;;;13.50;51.80;;;;;;5085506;27;45346;-66
2023/03/21 08:15:52;;;;;;;0.80;0.80;;;13.50;51.70;;;;;;5085683;27;45412;-66
2023/03/21 08:18:20;;;;;;;0.80;0.80;;;13.60;51.70;;;;;;5085521;27;45383;-66
2023/03/21 08:20:51;;;;;;;1.02;0.80;;;13.60;51.70;;;;;;5085211;27;46541;-66
2023/03/21 08:23:18;;;;;;;0.70;0.70;;;13.60;51.60;;;;;;5085275;27;45258;-66
2023/03/21 08:25:45;;;;;;;0.70;0.70;;;13.60;51.70;;;;;;5085326;27;45446;-66
2023/03/21 08:28:12;;;;;;;1.00;0.85;;;13.60;51.60;;;;;;5088497;27;45409;-66
2023/03/21 08:30:39;;;;;;;0.80;0.80;;;13.70;51.60;;;;;;5088401;27;45325;-67
2023/03/21 08:33:06;;;;;;;1.00;0.70;;;13.70;51.60;;;;;;5088809;27;45459;-66
2023/03/21 08:35:34;;;;;;;0.77;0.77;;;13.70;51.70;;;;;;5088717;27;45511;-67
2023/03/21 08:38:02;;;;;;;1.67;0.90;;;13.70;51.60;;;;;;5088950;27;45476;-66
2023/03/21 08:40:29;;;;;;;1.08;0.85;;;13.70;51.50;;;;;;5088357;27;45446;-67
2023/03/21 08:42:56;;;;;;;0.95;0.85;;;13.70;51.40;;;;;;5088353;27;45330;-66
2023/03/21 08:45:23;;;;;;;0.80;0.75;;;13.80;51.40;;;;;;5088791;27;45264;-65
2023/03/21 08:47:50;;;;;;;0.93;0.93;;;13.80;51.30;;;;;;5088654;27;45275;-65
2023/03/21 08:50:18;;;;;;;1.00;0.90;;;13.80;51.40;;;;;;5088063;27;46398;-66
2023/03/21 08:52:46;;;;;;;0.65;0.63;;;13.80;51.30;;;;;;5088358;27;45337;-67
2023/03/21 08:55:13;;;;;;;0.75;0.75;;;13.80;51.30;;;;;;5088625;27;45296;-66
2023/03/21 08:57:40;;;;;;;1.00;0.80;;;13.80;51.30;;;;;;5088365;27;45348;-66
2023/03/21 09:00:11;;;;;;;0.70;0.70;;;13.90;51.30;;;;;;5088175;27;45486;-66
2023/03/21 09:02:38;;;;;;;0.80;0.80;;;13.90;51.30;;;;;;5088241;27;45338;-66
2023/03/21 09:05:06;;;;;;;0.60;0.60;;;13.90;51.30;;;;;;5088314;27;45319;-65
2023/03/21 09:07:35;;;;;;;0.80;0.80;;;13.90;51.30;;;;;;5088373;27;45549;-65
2023/03/21 09:10:03;;;;;;;0.73;0.73;;;13.90;51.30;;;;;;5087901;27;46614;-65
2023/03/21 09:12:30;;;;;;;1.02;1.00;;;13.90;51.20;;;;;;5087649;27;46396;-66
2023/03/21 09:14:57;;;;;;;1.30;1.02;;;13.90;51.20;;;;;;5088037;27;45237;-66
2023/03/21 09:17:24;;;;;;;0.65;0.65;;;14.00;51.40;;;;;;5088316;27;45408;-66
2023/03/21 09:19:52;;;;;;;0.85;0.85;;;14.00;51.30;;;;;;5088018;27;46570;-65
2023/03/21 09:22:20;;;;;;;0.90;0.85;;;14.00;51.50;;;;;;5087735;27;45354;-66
2023/03/21 09:24:48;;;;;;;0.95;0.95;;;14.00;51.50;;;;;;5087672;27;45497;-66
2023/03/21 09:27:16;;;;;;;1.17;0.93;;;14.10;51.50;;;;;;5088102;27;45239;-66
2023/03/21 09:29:43;;;;;;;1.92;0.80;;;14.10;51.50;;;;;;5088008;27;47558;-66
2023/03/21 09:32:10;;;;;;;0.90;0.90;;;14.10;51.50;;;;;;5087549;27;45300;-65
2023/03/21 09:34:39;;;;;;;1.02;1.02;;;14.10;52.10;;;;;;5087837;27;45323;-65
2023/03/21 09:37:08;;;;;;;0.85;0.85;;;14.10;52.10;;;;;;5088228;27;45393;-66
2023/03/21 09:39:35;;;;;;;1.63;1.00;;;14.20;51.50;;;;;;5086498;27;45429;-66
2023/03/21 09:42:25;;;;;;;1.13;1.02;;;14.20;51.50;;;;;;5087622;27;45248;-66
2023/03/21 09:44:58;;;;;;;0.80;0.80;;;14.20;51.50;;;;;;5087661;27;45519;-66
2023/03/21 09:47:32;;;;;;;1.10;1.05;;;14.20;51.50;;;;;;5088203;27;45412;-66
2023/03/21 09:49:59;;;;;;;1.38;1.13;;;14.30;51.50;;;;;;5087303;27;45754;-66
2023/03/21 09:52:28;;;;;;;1.10;1.00;;;14.30;51.50;;;;;;5087258;27;45437;-66
2023/03/21 09:54:55;;;;;;;2.90;1.02;;;14.30;51.40;;;;;;5087531;27;45320;-66
2023/03/21 09:57:28;;;;;;;2.28;1.02;;;14.30;51.40;;;;;;5087674;27;45320;-65
2023/03/21 09:59:54;;;;;;;1.30;1.10;;;14.40;51.50;;;;;;5087485;27;46144;-68
2023/03/21 10:02:35;;;;;;;1.15;1.05;;;14.40;51.50;;;;;;5087287;27;45333;-68
2023/03/21 10:05:05;;;;;;;2.53;1.10;;;14.40;51.40;;;;;;5087418;27;45428;-67
2023/03/21 10:07:38;;;;;;;1.02;0.90;;;14.40;51.40;;;;;;5087611;27;45119;-67
2023/03/21 10:10:06;;;;;;;1.17;1.00;;;14.50;52.10;;;;;;5087143;27;47132;-66
2023/03/21 10:12:35;;;;;;;1.10;1.00;;;14.50;51.40;;;;;;5087122;27;45268;-66
2023/03/21 10:15:04;;;;;;;1.35;1.10;;;14.50;51.40;;;;;;5087340;27;45330;-66
2023/03/21 10:17:33;;;;;;;1.10;1.00;;;14.50;51.40;;;;;;5087471;27;45350;-66
2023/03/21 10:20:10;;;;;;;2.40;1.42;;;14.50;51.40;;;;;;5086872;27;46638;-69
2023/03/21 10:22:37;;;;;;;1.25;1.00;;;14.60;51.40;;;;;;5086882;27;45328;-67
2023/03/21 10:25:04;;;;;;;1.90;1.10;;;14.60;51.30;;;;;;5086945;27;45407;-67
2023/03/21 10:27:31;;;;;;;1.50;1.40;;;14.60;51.30;;;;;;5087370;27;45399;-66
2023/03/21 10:30:00;;;;;;;1.50;1.30;;;14.70;51.30;;;;;;5086850;27;45512;-68
2023/03/21 10:32:27;;;;;;;1.95;1.10;;;14.70;51.30;;;;;;5086638;27;45415;-66
2023/03/21 10:34:55;;;;;;;1.13;1.05;;;14.70;51.20;;;;;;5087199;27;45400;-66
2023/03/21 10:37:22;;;;;;;1.75;1.33;;;14.70;51.20;;;;;;5087081;27;45404;-66
2023/03/21 10:39:52;;;;;;;2.20;1.40;;;14.80;51.20;;;;;;5086732;27;45470;-66
2023/03/21 10:42:21;;;;;;;1.20;1.10;;;14.80;51.20;;;;;;5086503;27;45466;-68
2023/03/21 10:44:48;;;;;;;1.67;1.05;;;14.90;51.20;;;;;;5087000;27;45206;-69
2023/03/21 10:47:19;;;;;;;2.65;1.42;;;14.90;51.20;;;;;;5086951;27;45323;-68
2023/03/21 10:49:47;;;;;;;1.90;1.40;;;15.00;51.30;;;;;;5086301;27;46798;-68
2023/03/21 10:52:15;;;;;;;1.35;1.13;;;15.00;51.10;;;;;;5086367;27;45279;-68
2023/03/21 10:54:42;;;;;;;1.55;1.23;;;15.10;51.10;;;;;;5086875;27;45467;-68
2023/03/21 10:57:10;;;;;;;2.67;1.77;;;15.10;51.70;;;;;;5084200;27;45394;-66
2023/03/21 10:59:39;;;;;;;2.40;1.40;;;15.10;51.00;;;;;;5086433;27;47916;-66
2023/03/21 11:02:06;;;;;;;1.10;1.10;;;15.20;51.00;;;;;;5086415;27;45369;-68
2023/03/21 11:04:34;;;;;;;1.20;1.10;;;15.30;50.90;;;;;;5086744;27;45406;-68
2023/03/21 11:07:05;;;;;;;2.95;1.10;;;15.30;50.90;;;;;;5086806;27;45542;-68
2023/03/21 11:09:44;;;;;;;1.70;1.33;;;15.30;50.80;;;;;;5086476;27;45393;-66
2023/03/21 11:12:11;;;;;;;2.38;1.40;;;15.40;50.80;;;;;;5086111;27;45509;-69
2023/03/21 11:14:39;;;;;;;1.50;1.10;;;15.50;50.80;;;;;;5086347;27;45264;-68
2023/03/21 11:17:20;;;;;;;1.65;1.30;;;15.50;50.70;;;;;;5086515;27;45639;-68
2023/03/21 11:19:49;;;;;;;1.20;1.10;;;15.60;50.70;;;;;;5086330;27;46566;-68
2023/03/21 11:22:16;;;;;;;1.73;1.30;;;15.70;50.60;;;;;;5085990;27;45336;-67
2023/03/21 11:24:43;;;;;;;3.47;1.48;;;15.70;50.60;;;;;;5086377;27;45529;-68
2023/03/21 11:27:10;;;;;;;1.52;1.40;;;15.80;50.60;;;;;;5086476;27;45338;-68
2023/03/21 11:29:38;;;;;;;3.25;1.55;;;15.90;50.50;;;;;;5086125;27;46740;-68
2023/03/21 11:32:10;;;;;;;1.63;1.40;;;15.90;50.30;;;;;;5085835;27;45406;-68
2023/03/21 11:34:42;;;;;;;1.65;1.30;;;16.00;50.30;;;;;;5086218;27;45258;-68
2023/03/21 11:37:20;;;;;;;1.30;1.20;;;16.00;50.10;;;;;;5086435;27;45363;-67
2023/03/21 11:39:47;;;;;;;1.30;1.20;;;16.10;50.20;;;;;;5085761;27;46692;-67
2023/03/21 11:42:28;;;;;;;1.42;1.30;;;16.20;50.00;;;;;;5086202;27;45318;-67
2023/03/21 11:45:02;;;;;;;1.20;1.10;;;16.20;50.10;;;;;;5085959;27;45312;-66
2023/03/21 11:47:30;;;;;;;1.40;1.30;;;16.20;50.00;;;;;;5086171;27;45270;-67
2023/03/21 11:49:59;;;;;;;1.88;1.50;;;16.30;50.00;;;;;;5085606;27;46654;-67
2023/03/21 11:52:32;;;;;;;2.03;1.30;;;16.30;49.90;;;;;;5085517;27;45315;-67
2023/03/21 11:55:25;;;;;;;2.53;1.27;;;16.40;49.80;;;;;;5085911;27;45256;-68
2023/03/21 11:58:00;;;;;;;1.38;1.17;;;16.40;49.90;;;;;;5086056;27;45458;-68
2023/03/21 12:00:30;;;;;;;1.80;1.17;;;16.40;50.10;;;;;;5085618;27;45363;-69
2023/03/21 12:03:20;;;;;;;1.25;1.15;;;16.40;50.20;;;;;;5087036;27;45261;-68
2023/03/21 12:05:50;;;;;;;2.83;1.15;;;16.40;50.10;;;;;;5095014;27;46027;-68
2023/03/21 12:08:25;;;;;;;2.63;1.40;;;16.40;50.40;;;;;;5097559;27;45328;-69
2023/03/21 12:10:54;;;;;;;1.38;1.10;;;16.40;50.30;;;;;;5087968;27;45436;-69
2023/03/21 12:13:37;;;;;;;1.05;1.00;;;16.40;50.30;;;;;;5089771;27;45469;-69
2023/03/21 12:16:11;;;;;;;1.40;1.30;;;16.50;50.30;;;;;;5085238;28;45304;-69
2023/03/21 12:18:47;;;;;;;1.77;1.13;;;16.40;50.40;;;;;;5088497;27;45479;-69
2023/03/21 12:21:15;;;;;;;1.63;1.25;;;16.40;50.40;;;;;;5085892;27;45534;-69
2023/03/21 12:23:52;;;;;;;2.92;1.48;;;16.40;50.50;;;;;;5088054;27;45620;-69
2023/03/21 12:26:23;;;;;;;2.08;1.25;;;16.40;50.50;;;;;;5081251;27;45584;-68
2023/03/21 12:28:58;;;;;;;2.63;1.38;;;16.40;50.50;;;;;;5084756;27;45579;-68
2023/03/21 12:31:28;;;;;;;2.75;1.30;;;16.50;50.80;;;;;;5087467;27;46484;-69
2023/03/21 12:34:02;;;;;;;1.70;1.40;;;16.50;50.90;;;;;;5088127;28;45373;-68
2023/03/21 12:36:40;;;;;;;1.67;1.20;;;16.50;50.80;;;;;;5086536;27;45423;-69
2023/03/21 12:39:14;;;;;;;2.28;1.10;;;16.50;50.90;;;;;;5087740;27;45289;-69
2023/03/21 12:41:43;;;;;;;2.20;1.00;;;16.50;50.70;;;;;;5088285;27;46921;-69
2023/03/21 12:44:11;;;;;;;1.63;1.00;;;16.50;51.40;;;;;;5087542;27;45336;-68
2023/03/21 12:46:40;;;;;;;1.15;1.05;;;16.50;50.90;;;;;;5087094;27;45279;-69
2023/03/21 12:49:08;;;;;;;1.25;1.10;;;16.50;50.90;;;;;;5088297;27;45340;-68
2023/03/21 12:51:37;;;;;;;1.40;1.30;;;16.50;50.90;;;;;;5088048;27;45407;-68
2023/03/21 12:54:21;;;;;;;1.25;1.15;;;16.50;50.80;;;;;;5091146;27;45674;-68
2023/03/21 12:56:51;;;;;;;3.08;1.55;;;16.60;50.80;;;;;;5068081;28;45339;-68